Time;durP1;ratioP1;P1;durP2;ratioP2;P2;SDS_P1;SDS_P2;PMS_P1;PMS_P2;Temp;Humidity;BMP_temperature;BMP_pressure;BME280_temperature;BME280_humidity;BME280_pressure;Samples;Min_cycle;Max_cycle;Signal;HPM_P1;HPM_P2
2023/09/08 00:00:07;;;;;;;7.95;4.18;;;;;;;11.03;100.00;100468.16;5180389;27;20312;-53
2023/09/08 00:02:33;;;;;;;8.50;3.88;;;;;;;10.89;100.00;100501.34;5179920;27;20085;-57
2023/09/08 00:04:59;;;;;;;8.30;3.88;;;;;;;10.89;100.00;100509.56;5180111;27;20138;-55
2023/09/08 00:07:25;;;;;;;11.68;4.55;;;;;;;10.89;100.00;100506.03;5180295;27;20054;-57
2023/09/08 00:09:51;;;;;;;8.73;3.70;;;;;;;10.92;100.00;100516.34;5179983;27;20054;-55
2023/09/08 00:12:17;;;;;;;15.73;4.50;;;;;;;10.91;100.00;100515.53;5180148;27;20364;-52
2023/09/08 00:14:43;;;;;;;20.90;6.07;;;;;;;10.92;100.00;100508.09;5179762;27;20133;-54
2023/09/08 00:17:09;;;;;;;11.50;4.80;;;;;;;10.88;100.00;100505.22;5179670;27;20050;-57
2023/09/08 00:19:35;;;;;;;13.90;4.18;;;;;;;10.92;100.00;100513.59;5179770;27;20058;-56
2023/09/08 00:22:03;;;;;;;9.98;4.35;;;;;;;10.87;100.00;100509.13;5180143;27;20191;-55
2023/09/08 00:24:28;;;;;;;9.60;3.72;;;;;;;10.86;100.00;100529.44;5179588;27;20421;-55
2023/09/08 00:26:54;;;;;;;12.18;4.32;;;;;;;10.86;100.00;100531.38;5179970;27;20047;-54
2023/09/08 00:29:20;;;;;;;14.27;4.30;;;;;;;10.75;100.00;100541.94;5179549;27;20042;-53
2023/09/08 00:31:46;;;;;;;11.13;3.90;;;;;;;10.87;100.00;100550.28;5179986;27;20058;-57
2023/09/08 00:34:12;;;;;;;10.57;4.15;;;;;;;10.78;100.00;100536.59;5179782;27;20077;-57
2023/09/08 00:36:38;;;;;;;11.38;3.80;;;;;;;10.77;100.00;100537.75;5179658;27;20196;-58
2023/09/08 00:39:05;;;;;;;11.18;4.28;;;;;;;10.78;100.00;100538.53;5179512;27;20404;-57
2023/09/08 00:41:30;;;;;;;12.10;4.47;;;;;;;10.70;100.00;100537.47;5179413;27;20098;-58
2023/09/08 00:43:56;;;;;;;8.73;3.88;;;;;;;10.69;100.00;100541.31;5179727;27;20050;-58
2023/09/08 00:46:23;;;;;;;6.47;3.85;;;;;;;10.60;100.00;100543.34;5179421;27;20416;-56
2023/09/08 00:48:49;;;;;;;6.35;3.35;;;;;;;10.64;100.00;100546.22;5179626;27;20042;-56
2023/09/08 00:51:15;;;;;;;13.48;4.32;;;;;;;10.67;100.00;100549.09;5179154;27;20340;-55
2023/09/08 00:53:41;;;;;;;8.57;3.50;;;;;;;10.66;100.00;100552.16;5179609;27;20050;-53
2023/09/08 00:56:09;;;;;;;9.45;3.58;;;;;;;10.66;100.00;100552.97;5179065;27;20419;-59
2023/09/08 00:58:35;;;;;;;6.57;3.83;;;;;;;10.63;100.00;100566.53;5179854;27;20042;-57
2023/09/08 01:01:01;;;;;;;13.05;4.05;;;;;;;10.69;100.00;100568.75;5179067;27;20073;-58
2023/09/08 01:03:27;;;;;;;13.40;3.90;;;;;;;10.66;100.00;100566.66;5179470;27;20145;-59
2023/09/08 01:05:53;;;;;;;13.77;4.70;;;;;;;10.70;100.00;100566.84;5179283;27;20144;-57
2023/09/08 01:08:20;;;;;;;10.73;3.67;;;;;;;10.72;100.00;100570.03;5179131;27;20149;-56
2023/09/08 01:10:46;;;;;;;10.68;4.28;;;;;;;10.70;100.00;100564.09;5179282;27;20199;-55
2023/09/08 01:13:13;;;;;;;11.90;4.88;;;;;;;10.68;100.00;100566.34;5179058;27;20046;-59
2023/09/08 01:15:38;;;;;;;11.38;4.18;;;;;;;10.63;100.00;100559.13;5179296;27;20137;-60
2023/09/08 01:18:05;;;;;;;11.70;3.88;;;;;;;10.64;100.00;100566.22;5178799;27;20094;-57
2023/09/08 01:20:43;;;;;;;10.50;3.95;;;;;;;10.62;100.00;100557.50;5179365;27;20056;-52
2023/09/08 01:23:21;;;;;;;14.10;4.25;;;;;;;10.63;100.00;100561.06;5178856;27;20340;-58
2023/09/08 01:25:53;;;;;;;9.98;3.92;;;;;;;10.63;100.00;100561.06;5179215;27;20162;-55
2023/09/08 01:28:21;;;;;;;5.43;3.50;;;;;;;10.55;100.00;100563.50;5179719;27;20145;-56
2023/09/08 01:30:48;;;;;;;7.38;3.28;;;;;;;10.55;100.00;100573.69;5182652;27;20134;-56
2023/09/08 01:33:14;;;;;;;11.98;3.65;;;;;;;10.44;100.00;100573.25;5182684;27;20137;-55
2023/09/08 01:35:40;;;;;;;31.92;4.57;;;;;;;10.50;100.00;100577.41;5182571;27;20050;-53
2023/09/08 01:38:06;;;;;;;11.40;3.83;;;;;;;10.51;100.00;100570.00;5182679;27;20050;-53
2023/09/08 01:40:32;;;;;;;7.57;3.75;;;;;;;10.54;100.00;100569.34;5182394;27;20054;-56
2023/09/08 01:42:59;;;;;;;12.77;5.65;;;;;;;10.51;100.00;100559.81;5182642;27;20558;-55
2023/09/08 01:45:25;;;;;;;17.67;5.70;;;;;;;10.49;100.00;100564.03;5182221;27;20137;-53
2023/09/08 01:47:51;;;;;;;27.23;6.20;;;;;;;10.49;100.00;100564.81;5182622;27;20194;-52
2023/09/08 01:50:22;;;;;;;27.42;4.90;;;;;;;10.45;100.00;100580.34;5182142;27;20136;-52
2023/09/08 01:52:48;;;;;;;11.60;4.30;;;;;;;10.47;100.00;100577.28;5182548;27;20046;-54
2023/09/08 01:55:16;;;;;;;10.45;4.05;;;;;;;10.52;100.00;100586.09;5182275;27;20057;-52
2023/09/08 01:57:42;;;;;;;12.88;4.43;;;;;;;10.49;100.00;100584.03;5182005;27;20476;-59
2023/09/08 02:00:10;;;;;;;12.48;4.00;;;;;;;10.51;100.00;100584.50;5181933;27;20058;-57
2023/09/08 02:02:36;;;;;;;11.98;4.20;;;;;;;10.47;100.00;100583.56;5182164;27;20153;-59
2023/09/08 02:05:02;;;;;;;14.63;5.38;;;;;;;10.30;100.00;100587.19;5182081;27;20399;-59
2023/09/08 02:07:27;;;;;;;11.02;4.13;;;;;;;10.48;100.00;100595.31;5182012;27;20061;-58
2023/09/08 02:09:53;;;;;;;12.98;4.10;;;;;;;10.40;100.00;100585.22;5182286;27;20144;-55
2023/09/08 02:12:19;;;;;;;8.90;4.03;;;;;;;10.32;100.00;100584.09;5181747;27;20046;-53
2023/09/08 02:14:45;;;;;;;12.90;3.65;;;;;;;10.42;100.00;100580.19;5182478;27;20137;-53
2023/09/08 02:17:12;;;;;;;8.80;4.40;;;;;;;10.35;100.00;100578.75;5181723;27;20423;-55
2023/09/08 02:19:38;;;;;;;10.60;3.90;;;;;;;10.40;100.00;100579.72;5182099;27;20145;-51
2023/09/08 02:22:04;;;;;;;9.75;3.92;;;;;;;10.31;100.00;100582.50;5181782;27;20046;-55
2023/09/08 02:24:29;;;;;;;9.38;3.70;;;;;;;10.19;100.00;100583.13;5181934;27;20136;-57
2023/09/08 02:26:55;;;;;;;7.03;4.13;;;;;;;10.25;100.00;100576.34;5182033;27;20191;-57
2023/09/08 02:29:22;;;;;;;13.13;4.43;;;;;;;10.21;100.00;100580.88;5181429;27;20331;-58
2023/09/08 02:31:48;;;;;;;14.50;4.25;;;;;;;10.27;100.00;100581.56;5181615;27;20054;-58
2023/09/08 02:34:14;;;;;;;12.52;3.95;;;;;;;10.23;100.00;100581.38;5181589;27;20046;-57
2023/09/08 02:36:40;;;;;;;12.80;3.92;;;;;;;10.25;100.00;100573.63;5181783;27;20046;-58
2023/09/08 02:39:07;;;;;;;10.32;4.72;;;;;;;10.26;100.00;100572.53;5181123;27;20101;-57
2023/09/08 02:41:33;;;;;;;8.77;4.07;;;;;;;10.27;100.00;100576.06;5181690;27;20106;-53
2023/09/08 02:43:59;;;;;;;11.43;4.70;;;;;;;10.20;100.00;100581.22;5181360;27;20046;-55
2023/09/08 02:46:24;;;;;;;8.38;3.65;;;;;;;10.18;100.00;100578.81;5181260;27;20050;-57
2023/09/08 02:48:51;;;;;;;7.57;3.72;;;;;;;10.17;100.00;100582.69;5181193;27;20107;-58
2023/09/08 02:51:18;;;;;;;14.52;4.20;;;;;;;10.17;100.00;100579.13;5181641;27;20344;-57
2023/09/08 02:53:44;;;;;;;11.63;5.28;;;;;;;10.22;100.00;100571.53;5181380;27;20368;-59
2023/09/08 02:56:09;;;;;;;14.63;5.75;;;;;;;10.21;100.00;100577.34;5181313;27;20092;-59
2023/09/08 02:58:35;;;;;;;16.10;5.20;;;;;;;10.21;100.00;100572.66;5181343;27;20145;-58
2023/09/08 03:01:11;;;;;;;21.30;5.53;;;;;;;10.22;100.00;100568.78;5181069;27;20104;-53
2023/09/08 03:03:37;;;;;;;8.45;4.05;;;;;;;10.24;100.00;100572.00;5181448;27;20050;-55
2023/09/08 03:06:03;;;;;;;11.32;3.80;;;;;;;10.18;100.00;100567.03;5181030;27;20046;-53
2023/09/08 03:08:30;;;;;;;17.52;5.72;;;;;;;10.12;100.00;100569.13;5181257;27;20046;-53
2023/09/08 03:10:57;;;;;;;30.55;6.68;;;;;;;10.07;100.00;100563.84;5180971;27;20145;-59
2023/09/08 03:13:22;;;;;;;15.30;5.25;;;;;;;10.07;100.00;100544.69;5181490;27;20050;-57
2023/09/08 03:15:48;;;;;;;18.13;5.38;;;;;;;10.01;100.00;100545.97;5180781;27;20060;-57
2023/09/08 03:18:14;;;;;;;8.88;4.60;;;;;;;10.05;100.00;100538.72;5181259;27;20046;-57
2023/09/08 03:20:40;;;;;;;12.48;4.60;;;;;;;9.99;100.00;100535.34;5180579;27;20414;-53
2023/09/08 03:23:06;;;;;;;10.10;4.45;;;;;;;10.03;100.00;100541.78;5180910;27;20082;-54
2023/09/08 03:25:33;;;;;;;12.68;5.03;;;;;;;10.05;100.00;100536.75;5180889;27;20077;-55
2023/09/08 03:27:59;;;;;;;30.85;6.88;;;;;;;9.97;100.00;100528.59;5181083;27;20358;-55
2023/09/08 03:30:24;;;;;;;26.52;7.00;;;;;;;10.05;100.00;100535.97;5180664;27;20064;-55
2023/09/08 03:32:50;;;;;;;20.65;5.68;;;;;;;9.99;100.00;100529.84;5180619;27;20042;-53
2023/09/08 03:35:16;;;;;;;12.38;4.97;;;;;;;10.03;100.00;100535.47;5180852;27;20413;-56
2023/09/08 03:37:42;;;;;;;12.77;4.88;;;;;;;10.00;100.00;100536.97;5180451;27;20050;-57
2023/09/08 03:40:09;;;;;;;9.05;4.32;;;;;;;10.04;100.00;100545.31;5180704;27;20483;-59
2023/09/08 03:42:35;;;;;;;26.83;4.63;;;;;;;10.03;100.00;100549.19;5180429;27;20408;-58
2023/09/08 03:45:02;;;;;;;7.63;4.60;;;;;;;10.03;100.00;100544.53;5180740;27;20180;-58
2023/09/08 03:47:27;;;;;;;11.30;4.72;;;;;;;9.98;100.00;100547.44;5180248;27;20133;-54
2023/09/08 03:49:53;;;;;;;11.27;4.45;;;;;;;10.06;100.00;100545.78;5180705;27;20085;-52
2023/09/08 03:52:20;;;;;;;11.95;5.35;;;;;;;10.13;100.00;100540.63;5179614;27;20137;-54
2023/09/08 03:54:46;;;;;;;7.05;4.47;;;;;;;10.06;100.00;100548.53;5180415;27;20058;-53
2023/09/08 03:57:12;;;;;;;23.85;4.43;;;;;;;10.07;100.00;100550.94;5180439;27;20102;-55
2023/09/08 03:59:38;;;;;;;37.53;6.13;;;;;;;10.12;100.00;100544.47;5180247;27;20050;-57
2023/09/08 04:02:04;;;;;;;14.68;5.38;;;;;;;10.16;100.00;100550.09;5180205;27;20524;-54
2023/09/08 04:04:30;;;;;;;17.95;5.13;;;;;;;10.06;100.00;100535.66;5180118;27;20050;-57
2023/09/08 04:06:56;;;;;;;16.60;5.60;;;;;;;10.33;100.00;100539.94;5180393;27;20102;-57
2023/09/08 04:09:22;;;;;;;19.90;5.65;;;;;;;10.72;100.00;100537.13;5179958;27;20399;-59
2023/09/08 04:11:48;;;;;;;12.85;4.70;;;;;;;11.10;100.00;100528.81;5179799;27;20050;-55
2023/09/08 04:14:14;;;;;;;12.18;4.70;;;;;;;11.39;100.00;100516.91;5180155;27;20141;-55
2023/09/08 04:16:40;;;;;;;19.63;4.78;;;;;;;11.93;100.00;100463.88;5180507;27;20046;-55
2023/09/08 04:19:06;;;;;;;9.40;4.30;;;;;;;12.36;100.00;100335.97;5179672;27;20483;-55
2023/09/08 04:21:32;;;;;;;10.07;4.50;;;;;;;12.63;100.00;100087.63;5179793;27;20042;-56
2023/09/08 04:23:58;;;;;;;25.08;4.68;;;;;;;13.18;100.00;99865.47;5179678;27;20061;-55
2023/09/08 04:26:24;;;;;;;14.35;4.13;;;;;;;13.46;100.00;99594.50;5179610;27;20054;-59
2023/09/08 04:28:50;;;;;;;11.85;4.47;;;;;;;13.41;100.00;99402.84;5179861;27;20114;-58
2023/09/08 04:31:17;;;;;;;16.23;5.10;;;;;;;13.68;100.00;99314.56;5179600;27;20341;-59
2023/09/08 04:33:44;;;;;;;10.70;4.03;;;;;;;14.01;100.00;99225.41;5179790;27;20316;-60
2023/09/08 04:36:10;;;;;;;23.60;5.95;;;;;;;14.36;100.00;99136.53;5179490;27;20396;-58
2023/09/08 04:38:36;;;;;;;14.00;6.20;;;;;;;15.03;100.00;99104.66;5180018;27;20141;-56
2023/09/08 04:41:02;;;;;;;11.95;4.47;;;;;;;15.29;100.00;99102.63;5179338;27;20399;-55
2023/09/08 04:43:28;;;;;;;19.40;4.00;;;;;;;15.61;100.00;99138.47;5179525;27;20132;-58
2023/09/08 04:45:54;;;;;;;12.70;3.92;;;;;;;15.94;100.00;99178.66;5179159;27;20133;-58
2023/09/08 04:48:20;;;;;;;18.50;4.55;;;;;;;16.20;100.00;99213.34;5179575;27;20046;-59
2023/09/08 04:50:47;;;;;;;10.50;3.90;;;;;;;16.74;100.00;99279.50;5179618;27;20081;-58
2023/09/08 04:53:12;;;;;;;6.22;4.03;;;;;;;16.21;100.00;99320.00;5179387;27;20050;-60
2023/09/08 04:55:38;;;;;;;13.23;4.85;;;;;;;15.39;100.00;99212.31;5179596;27;20319;-58
2023/09/08 04:58:04;;;;;;;15.20;5.70;;;;;;;15.20;100.00;99155.53;5179091;27;20145;-56
2023/09/08 05:00:30;;;;;;;10.65;4.57;;;;;;;14.96;100.00;99129.50;5179189;27;20132;-55
2023/09/08 05:02:56;;;;;;;14.90;4.55;;;;;;;15.56;100.00;99124.25;5178908;27;20081;-59
2023/09/08 05:05:22;;;;;;;10.27;4.53;;;;;;;16.41;100.00;99164.63;5179328;27;20092;-59
2023/09/08 05:07:49;;;;;;;13.73;4.10;;;;;;;16.87;100.00;99216.94;5178734;27;20144;-60
2023/09/08 05:10:15;;;;;;;12.95;4.47;;;;;;;17.39;100.00;99289.00;5179495;27;20054;-60
2023/09/08 05:12:41;;;;;;;9.15;4.00;;;;;;;17.80;100.00;99371.47;5179070;27;20423;-58
2023/09/08 05:15:14;;;;;;;12.45;6.90;;;;;;;18.44;100.00;99444.22;5179542;27;20088;-60
2023/09/08 05:17:40;;;;;;;11.00;6.23;;;;;;;17.50;100.00;99405.31;5178797;27;20106;-59
2023/09/08 05:20:07;;;;;;;10.15;4.47;;;;;;;16.76;100.00;99310.38;5179063;27;20354;-54
2023/09/08 05:22:33;;;;;;;13.45;4.57;;;;;;;16.43;100.00;99209.28;5179072;27;20140;-61
2023/09/08 05:25:00;;;;;;;16.75;6.40;;;;;;;16.18;100.00;99173.44;5178815;27;20042;-61
2023/09/08 05:27:25;;;;;;;15.18;4.57;;;;;;;16.14;100.00;99134.72;5179171;27;20050;-61
2023/09/08 05:29:51;;;;;;;9.98;3.97;;;;;;;16.68;100.00;99137.16;5178505;27;20430;-58
2023/09/08 05:32:17;;;;;;;9.43;4.53;;;;;;;16.96;100.00;99157.53;5178815;27;20046;-58
2023/09/08 05:34:44;;;;;;;9.15;4.20;;;;;;;17.83;100.00;99233.97;5178462;27;20376;-58
2023/09/08 05:37:10;;;;;;;11.82;5.80;;;;;;;18.48;100.00;99342.25;5178794;27;20042;-56
2023/09/08 05:39:36;;;;;;;12.02;3.70;;;;;;;19.09;100.00;99474.91;5178323;27;20105;-57
2023/09/08 05:42:03;;;;;;;13.98;5.80;;;;;;;19.87;100.00;99585.19;5178762;27;20384;-57
2023/09/08 05:44:28;;;;;;;6.88;4.53;;;;;;;20.33;100.00;99610.81;5178211;27;20146;-58
2023/09/08 05:46:54;;;;;;;59.70;7.40;;;;;;;21.10;100.00;99632.28;5178668;27;20046;-60
2023/09/08 05:49:20;;;;;;;10.60;4.00;;;;;;;21.37;100.00;99671.25;5178541;27;20093;-57
2023/09/08 05:51:47;;;;;;;11.25;3.72;;;;;;;21.61;100.00;99697.13;5178478;27;20069;-53
2023/09/08 05:54:12;;;;;;;14.32;3.30;;;;;;;21.45;100.00;99716.53;5178045;27;20106;-57
2023/09/08 05:56:39;;;;;;;8.38;2.90;;;;;;;21.98;100.00;99737.09;5177982;27;20103;-58
2023/09/08 05:59:05;;;;;;;4.35;2.78;;;;;;;22.35;100.00;99749.91;5178448;27;20239;-51
2023/09/08 06:01:32;;;;;;;5.30;2.20;;;;;;;22.79;100.00;99762.56;5177973;27;20141;-52
2023/09/08 06:03:58;;;;;;;5.47;2.20;;;;;;;22.96;100.00;99765.41;5178219;27;20395;-52
2023/09/08 06:06:26;;;;;;;5.70;2.25;;;;;;;22.79;100.00;99773.72;5177954;27;20412;-57
2023/09/08 06:08:52;;;;;;;13.90;4.43;;;;;;;22.80;100.00;99766.13;5178372;27;20098;-57
2023/09/08 06:11:17;;;;;;;4.82;2.35;;;;;;;23.38;100.00;99766.38;5177829;27;20144;-58
2023/09/08 06:13:43;;;;;;;9.10;2.97;;;;;;;23.71;99.73;99766.38;5178396;27;20069;-56
2023/09/08 06:16:10;;;;;;;4.53;2.58;;;;;;;23.79;94.28;99764.97;5181329;27;20075;-55
2023/09/08 06:18:39;;;;;;;6.65;1.92;;;;;;;24.04;91.05;99764.28;5181704;27;20141;-57
2023/09/08 06:21:06;;;;;;;10.07;3.22;;;;;;;24.21;91.32;99751.00;5181610;27;20052;-55
2023/09/08 06:23:32;;;;;;;5.78;2.70;;;;;;;24.55;90.30;99742.00;5181518;27;20194;-56
2023/09/08 06:25:59;;;;;;;6.70;2.70;;;;;;;24.67;91.85;99734.88;5181411;27;20493;-53
2023/09/08 06:28:25;;;;;;;9.63;3.28;;;;;;;24.88;86.37;99742.59;5181496;27;20136;-52
2023/09/08 06:30:52;;;;;;;6.03;2.75;;;;;;;24.99;87.67;99730.25;5181555;27;20442;-54
2023/09/08 06:33:18;;;;;;;6.15;3.30;;;;;;;25.35;84.39;99730.69;5181190;27;20050;-54
2023/09/08 06:35:44;;;;;;;9.40;3.00;;;;;;;25.33;80.36;99726.78;5181665;27;20078;-56
2023/09/08 06:38:10;;;;;;;10.57;2.97;;;;;;;25.36;78.54;99725.88;5180920;27;20395;-54
2023/09/08 06:40:36;;;;;;;9.18;2.47;;;;;;;24.87;81.45;99726.25;5181811;27;20082;-53
2023/09/08 06:43:02;;;;;;;8.18;4.63;;;;;;;24.49;81.32;99720.59;5180908;27;20050;-56
2023/09/08 06:45:28;;;;;;;9.93;3.17;;;;;;;24.33;81.55;99727.06;5180996;27;20137;-56
2023/09/08 06:47:54;;;;;;;7.07;2.60;;;;;;;23.64;83.11;99730.16;5181183;27;20076;-54
2023/09/08 06:50:21;;;;;;;5.47;1.88;;;;;;;23.51;84.74;99729.28;5180816;27;20076;-57
2023/09/08 06:52:47;;;;;;;5.18;2.50;;;;;;;23.65;87.91;99723.31;5181154;27;20095;-55
2023/09/08 06:55:16;;;;;;;8.35;1.70;;;;;;;23.29;87.26;99723.44;5180761;27;20042;-53
2023/09/08 06:57:42;;;;;;;2.67;1.40;;;;;;;23.75;83.25;99722.25;5181018;27;20069;-52
2023/09/08 07:00:11;;;;;;;9.48;2.45;;;;;;;23.90;86.85;99720.66;5180805;27;20315;-54
2023/09/08 07:02:37;;;;;;;5.25;2.10;;;;;;;24.06;82.53;99719.00;5181134;27;20050;-59
2023/09/08 07:05:07;;;;;;;5.38;1.90;;;;;;;23.90;84.49;99726.25;5180758;27;20054;-57
2023/09/08 07:07:37;;;;;;;4.22;1.75;;;;;;;24.10;85.21;99728.91;5181034;27;20050;-56
2023/09/08 07:10:04;;;;;;;2.78;1.63;;;;;;;24.05;83.22;99732.22;5180593;27;20050;-55
2023/09/08 07:12:30;;;;;;;6.50;2.00;;;;;;;24.06;84.84;99738.63;5180492;27;20050;-56
2023/09/08 07:14:56;;;;;;;9.82;1.85;;;;;;;24.16;84.57;99729.16;5180213;27;20060;-57
2023/09/08 07:17:23;;;;;;;4.60;1.50;;;;;;;24.54;84.00;99722.84;5180475;27;20141;-60
2023/09/08 07:19:49;;;;;;;4.95;1.60;;;;;;;24.87;82.97;99717.81;5180916;27;20046;-53
2023/09/08 07:22:15;;;;;;;5.43;2.20;;;;;;;24.79;83.72;99708.84;5180426;27;20081;-57
2023/09/08 07:24:41;;;;;;;6.18;2.42;;;;;;;25.02;83.34;99713.31;5180633;27;20500;-60
2023/09/08 07:27:08;;;;;;;6.00;2.25;;;;;;;24.85;82.20;99721.06;5178967;27;20068;-59
2023/09/08 07:29:34;;;;;;;7.28;2.50;;;;;;;24.82;80.04;99709.97;5180530;27;20053;-55
2023/09/08 07:32:00;;;;;;;7.30;2.50;;;;;;;24.95;78.74;99707.94;5180088;27;20049;-56
2023/09/08 07:34:26;;;;;;;8.25;1.48;;;;;;;25.03;77.45;99705.69;5180266;27;20046;-58
2023/09/08 07:36:52;;;;;;;3.63;1.45;;;;;;;24.73;78.77;99712.69;5179996;27;20132;-55
2023/09/08 07:39:18;;;;;;;4.13;2.05;;;;;;;24.63;81.39;99712.56;5180560;27;20054;-52
2023/09/08 07:41:44;;;;;;;7.15;2.38;;;;;;;24.62;80.87;99707.38;5179921;27;20046;-54
2023/09/08 07:44:10;;;;;;;5.40;2.50;;;;;;;24.61;80.92;99709.41;5179919;27;20055;-51
2023/09/08 07:46:36;;;;;;;4.78;1.40;;;;;;;24.38;83.20;99721.66;5180239;27;20054;-53
2023/09/08 07:49:03;;;;;;;8.73;2.38;;;;;;;24.10;82.94;99723.31;5180028;27;20042;-56
2023/09/08 07:51:29;;;;;;;9.25;2.33;;;;;;;24.47;84.02;99718.25;5180215;27;20050;-52
2023/09/08 07:53:56;;;;;;;15.00;2.15;;;;;;;24.64;80.64;99716.13;5180140;27;20148;-53
2023/09/08 07:56:22;;;;;;;7.95;2.95;;;;;;;25.18;81.30;99717.25;5180165;27;20054;-51
2023/09/08 07:58:48;;;;;;;4.28;2.70;;;;;;;25.23;78.26;99711.88;5179775;27;20078;-52
2023/09/08 08:01:15;;;;;;;7.95;2.20;;;;;;;25.50;76.35;99711.34;5180203;27;20141;-51
2023/09/08 08:03:41;;;;;;;6.30;2.45;;;;;;;25.76;76.17;99714.84;5180055;27;20060;-53
2023/09/08 08:06:07;;;;;;;11.95;2.88;;;;;;;25.96;74.58;99705.34;5180131;27;20140;-54
2023/09/08 08:08:38;;;;;;;11.95;2.35;;;;;;;25.96;73.83;99710.97;5179563;27;20330;-57
2023/09/08 08:11:10;;;;;;;7.25;1.50;;;;;;;25.62;74.69;99712.53;5179345;27;20408;-56
2023/09/08 08:13:36;;;;;;;6.28;1.80;;;;;;;25.94;71.51;99710.63;5179610;27;20394;-56
2023/09/08 08:16:02;;;;;;;12.13;2.20;;;;;;;25.50;76.46;99699.34;5179743;27;20099;-58
2023/09/08 08:18:28;;;;;;;9.00;3.22;;;;;;;25.46;77.32;99687.44;5179783;27;20046;-56
2023/09/08 08:20:54;;;;;;;12.55;3.20;;;;;;;25.94;75.58;99690.97;5179229;27;20161;-58
2023/09/08 08:23:20;;;;;;;8.43;2.38;;;;;;;26.50;74.27;99695.72;5179695;27;20042;-55
2023/09/08 08:25:46;;;;;;;12.60;2.90;;;;;;;27.09;74.39;99690.13;5179491;27;20042;-53
2023/09/08 08:28:12;;;;;;;11.75;2.95;;;;;;;27.27;69.74;99698.66;5179731;27;20057;-53
2023/09/08 08:30:38;;;;;;;10.60;3.13;;;;;;;27.36;67.31;99686.63;5179338;27;20102;-53
2023/09/08 08:33:05;;;;;;;7.55;2.78;;;;;;;27.21;67.47;99690.03;5179472;27;20087;-54
2023/09/08 08:35:31;;;;;;;12.40;2.30;;;;;;;27.39;66.11;99686.47;5179216;27;20050;-55
2023/09/08 08:37:58;;;;;;;6.78;2.60;;;;;;;27.27;67.42;99684.56;5179204;27;20396;-57
2023/09/08 08:40:26;;;;;;;9.40;2.78;;;;;;;27.13;67.06;99694.41;5179265;27;20133;-52
2023/09/08 08:42:55;;;;;;;4.38;2.00;;;;;;;26.18;67.54;99694.88;5179095;27;20054;-58
2023/09/08 08:45:23;;;;;;;5.18;1.95;;;;;;;26.93;65.93;99689.16;5179386;27;20105;-56
2023/09/08 08:47:49;;;;;;;7.47;2.55;;;;;;;26.81;65.70;99692.09;5178949;27;20042;-51
2023/09/08 08:50:17;;;;;;;6.00;1.83;;;;;;;27.10;66.32;99686.84;5179224;27;20050;-57
2023/09/08 08:52:44;;;;;;;7.90;2.30;;;;;;;26.97;64.80;99678.53;5178863;27;20064;-57
2023/09/08 08:55:10;;;;;;;10.48;2.65;;;;;;;27.02;64.92;99674.31;5179202;27;20536;-52
2023/09/08 08:57:38;;;;;;;7.18;2.20;;;;;;;27.52;64.50;99669.41;5178717;27;20138;-57
2023/09/08 09:00:08;;;;;;;8.40;2.10;;;;;;;27.24;62.67;99671.44;5179185;27;20061;-57
2023/09/08 09:02:36;;;;;;;7.28;2.00;;;;;;;27.34;60.83;99655.34;5178728;27;20050;-54
2023/09/08 09:05:02;;;;;;;4.95;2.00;;;;;;;26.90;62.15;99664.00;5179152;27;20305;-54
2023/09/08 09:07:29;;;;;;;7.93;1.90;;;;;;;26.69;62.88;99658.00;5178715;27;20082;-55
2023/09/08 09:09:55;;;;;;;5.05;2.20;;;;;;;26.62;63.82;99655.44;5178734;27;20050;-55
2023/09/08 09:12:22;;;;;;;3.88;2.10;;;;;;;26.80;64.48;99654.75;5178829;27;20074;-58
2023/09/08 09:14:48;;;;;;;8.07;2.28;;;;;;;26.66;64.15;99650.47;5178726;27;20347;-60
2023/09/08 09:17:14;;;;;;;5.30;2.00;;;;;;;26.67;63.41;99640.78;5178946;27;20378;-55
2023/09/08 09:19:41;;;;;;;6.72;1.80;;;;;;;27.32;63.08;99655.00;5178503;27;20137;-55
2023/09/08 09:22:07;;;;;;;4.90;2.05;;;;;;;27.05;63.12;99642.44;5178676;27;20280;-55
2023/09/08 09:24:38;;;;;;;8.15;1.88;;;;;;;27.25;63.01;99642.03;5178762;27;20129;-57
2023/09/08 09:27:05;;;;;;;5.82;2.00;;;;;;;27.90;61.35;99648.47;5178480;27;20056;-57
2023/09/08 09:29:31;;;;;;;2.75;1.60;;;;;;;27.93;60.32;99641.88;5178394;27;20328;-58
2023/09/08 09:32:03;;;;;;;10.48;2.35;;;;;;;27.86;59.88;99642.22;5178729;27;20145;-60
2023/09/08 09:34:30;;;;;;;5.15;1.75;;;;;;;27.98;60.91;99629.19;5178131;27;20065;-59
2023/09/08 09:36:56;;;;;;;7.05;2.10;;;;;;;27.57;61.93;99632.19;5178431;27;20224;-60
2023/09/08 09:39:24;;;;;;;8.88;2.08;;;;;;;26.67;63.02;99617.50;5178488;27;20145;-61
2023/09/08 09:41:54;;;;;;;4.30;2.10;;;;;;;26.50;65.35;99620.59;5178141;27;20419;-58
2023/09/08 09:44:21;;;;;;;4.20;2.20;;;;;;;27.49;62.69;99611.25;5178497;27;20109;-56
2023/09/08 09:46:48;;;;;;;12.25;2.03;;;;;;;27.35;62.38;99611.84;5178275;27;20054;-52
2023/09/08 09:49:17;;;;;;;4.35;1.95;;;;;;;27.48;60.95;99611.69;5179110;27;20052;-54
2023/09/08 09:51:44;;;;;;;11.20;2.20;;;;;;;27.11;59.95;99606.03;5181923;27;20390;-56
2023/09/08 09:54:11;;;;;;;5.40;1.67;;;;;;;27.09;59.15;99603.69;5181979;27;20474;-52
2023/09/08 09:56:38;;;;;;;6.68;2.05;;;;;;;27.48;58.57;99608.88;5181759;27;20057;-57
2023/09/08 09:59:08;;;;;;;5.55;1.80;;;;;;;27.21;58.55;99614.03;5181939;27;20053;-55
2023/09/08 10:01:35;;;;;;;4.57;2.00;;;;;;;27.14;60.32;99616.38;5181540;27;20071;-58
2023/09/08 10:04:03;;;;;;;6.72;1.70;;;;;;;27.13;59.74;99617.63;5182121;27;20050;-52
2023/09/08 10:06:31;;;;;;;5.65;2.10;;;;;;;27.28;58.84;99609.34;5181916;27;20053;-56
2023/09/08 10:09:00;;;;;;;5.18;2.25;;;;;;;26.83;58.76;99596.78;5181448;27;20540;-56
2023/09/08 10:11:29;;;;;;;4.10;2.00;;;;;;;26.97;58.28;99593.34;5181837;27;20046;-57
2023/09/08 10:13:58;;;;;;;5.40;1.65;;;;;;;26.43;59.77;99597.56;5181535;27;20114;-57
2023/09/08 10:16:27;;;;;;;6.32;2.70;;;;;;;26.47;59.56;99584.97;5181780;27;20050;-56
2023/09/08 10:18:54;;;;;;;9.75;1.95;;;;;;;26.16;61.28;99579.34;5181501;27;20053;-55
2023/09/08 10:21:23;;;;;;;6.30;2.10;;;;;;;26.41;62.40;99577.56;5181731;27;20102;-56
2023/09/08 10:23:54;;;;;;;4.30;2.17;;;;;;;26.49;63.84;99579.66;5181133;27;20462;-55
2023/09/08 10:26:23;;;;;;;11.65;2.42;;;;;;;26.43;64.45;99575.09;5181061;27;20054;-54
2023/09/08 10:28:51;;;;;;;4.25;2.25;;;;;;;26.58;63.44;99570.47;5181466;27;20077;-57
2023/09/08 10:31:17;;;;;;;6.70;2.83;;;;;;;26.29;63.69;99577.22;5181416;27;20050;-55
2023/09/08 10:33:45;;;;;;;9.68;2.38;;;;;;;26.11;65.07;99576.34;5181541;27;20054;-54
2023/09/08 10:36:12;;;;;;;9.60;2.28;;;;;;;26.43;62.24;99570.25;5181154;27;20077;-57
2023/09/08 10:38:38;;;;;;;3.50;1.85;;;;;;;26.26;63.03;99564.09;5181437;27;20042;-56
2023/09/08 10:41:27;;;;;;;8.30;2.60;;;;;;;26.32;62.84;99564.25;5181048;27;20100;-55
2023/09/08 10:43:55;;;;;;;6.45;2.83;;;;;;;26.70;62.38;99566.75;5181524;27;20064;-55
2023/09/08 10:46:22;;;;;;;9.63;2.70;;;;;;;26.40;62.74;99559.16;5180823;27;20050;-59
2023/09/08 10:48:49;;;;;;;16.17;2.10;;;;;;;26.42;63.42;99554.59;5180867;27;20331;-56
2023/09/08 10:51:17;;;;;;;5.47;2.58;;;;;;;26.37;64.11;99548.84;5181178;27;20046;-56
2023/09/08 10:53:43;;;;;;;10.20;2.22;;;;;;;26.22;62.66;99555.00;5180878;27;20046;-56
2023/09/08 10:56:09;;;;;;;7.53;2.47;;;;;;;26.44;63.34;99548.53;5181101;27;20171;-58
2023/09/08 10:58:38;;;;;;;8.52;2.08;;;;;;;26.68;60.90;99546.72;5180852;27;20062;-54
2023/09/08 11:01:04;;;;;;;7.05;2.08;;;;;;;26.41;61.37;99539.00;5180696;27;20046;-51
2023/09/08 11:03:44;;;;;;;6.75;2.30;;;;;;;25.90;62.20;99547.88;5180820;27;20316;-54
2023/09/08 11:06:11;;;;;;;3.80;2.20;;;;;;;25.74;62.90;99534.00;5180887;27;20304;-53
2023/09/08 11:08:41;;;;;;;4.80;2.20;;;;;;;25.67;64.51;99523.06;5180181;27;20060;-60
2023/09/08 11:11:07;;;;;;;6.40;2.92;;;;;;;25.61;64.81;99522.88;5180705;27;20453;-55
2023/09/08 11:13:33;;;;;;;9.07;2.10;;;;;;;25.15;66.27;99519.75;5180718;27;20094;-56
2023/09/08 11:15:59;;;;;;;10.10;2.30;;;;;;;25.11;66.26;99522.69;5180429;27;20042;-53
2023/09/08 11:18:26;;;;;;;3.75;1.88;;;;;;;24.79;64.78;99526.59;5180811;27;20089;-52